createdAt,value
2017-02-10T00:00:36.680Z,66.09
2017-02-10T00:01:45.634Z,66.47
2017-02-10T00:02:54.575Z,66.47
2017-02-10T00:04:03.523Z,66.47
2017-02-10T00:05:12.475Z,66.28
2017-02-10T00:06:21.506Z,66.47
2017-02-10T00:07:30.460Z,66.18
2017-02-10T00:08:39.408Z,66.28
2017-02-10T00:09:48.442Z,66.09
2017-02-10T00:10:57.390Z,66.18
2017-02-10T00:12:06.337Z,66.28
2017-02-10T00:13:15.368Z,65.8
2017-02-10T00:14:24.403Z,65.8
2017-02-10T00:15:33.348Z,65.99
2017-02-10T00:16:42.295Z,65.9
2017-02-10T00:17:51.686Z,65.71
2017-02-10T00:19:00.629Z,65.52
2017-02-10T00:20:09.573Z,65.23
2017-02-10T00:21:18.603Z,65.33
2017-02-10T00:22:27.577Z,65.23
2017-02-10T00:23:36.524Z,65.9
2017-02-10T00:24:45.468Z,65.8
2017-02-10T00:25:54.819Z,66.18
2017-02-10T00:27:03.768Z,65.8
2017-02-10T00:28:12.723Z,65.99
2017-02-10T00:29:22.075Z,66.18
2017-02-10T00:30:31.027Z,66.09
2017-02-10T00:31:39.975Z,65.99
2017-02-10T00:32:48.919Z,65.99
2017-02-10T00:33:57.862Z,66.28
2017-02-10T00:35:06.811Z,66.18
2017-02-10T00:36:15.761Z,66.18
2017-02-10T00:37:24.794Z,65.99
2017-02-10T00:38:33.741Z,66.47
2017-02-10T00:39:42.685Z,66.75
2017-02-10T00:40:51.632Z,66.65
2017-02-10T00:42:00.579Z,66.47
2017-02-10T00:43:10.344Z,66.47
2017-02-10T00:44:19.294Z,66.37
2017-02-10T00:45:28.234Z,66.75
2017-02-10T00:46:37.587Z,66.94
2017-02-10T00:47:46.529Z,66.84
2017-02-10T00:48:55.468Z,67.03
2017-02-10T00:50:04.498Z,66.47
2017-02-10T00:51:13.529Z,66.75
2017-02-10T00:52:22.470Z,66.37
2017-02-10T00:53:31.416Z,66.28
2017-02-10T00:54:40.446Z,66.56
2017-02-10T00:55:49.801Z,66.56
2017-02-10T00:56:58.744Z,66.94
2017-02-10T00:58:08.096Z,66.56
2017-02-10T00:59:17.043Z,67.22
2017-02-10T01:00:25.984Z,67.6
2017-02-10T01:01:34.929Z,67.6
2017-02-10T01:02:43.871Z,67.32
2017-02-10T01:03:52.819Z,67.79
2017-02-10T01:05:01.762Z,67.5
2017-02-10T01:06:10.721Z,67.6
2017-02-10T01:07:19.670Z,67.69
2017-02-10T01:08:28.619Z,67.41
2017-02-10T01:09:37.568Z,67.6
2017-02-10T01:10:46.512Z,67.97
2017-02-10T01:11:55.460Z,67.97
2017-02-10T01:13:04.405Z,68.16
2017-02-10T01:14:13.351Z,67.79
2017-02-10T01:15:22.296Z,68.16
2017-02-10T01:16:31.244Z,67.97
2017-02-10T01:17:40.231Z,68.26
2017-02-10T01:18:49.175Z,67.88
2017-02-10T01:19:58.120Z,67.79
2017-02-10T01:21:07.069Z,67.79
2017-02-10T01:22:16.416Z,67.97
2017-02-10T01:23:25.358Z,67.88
2017-02-10T01:24:34.343Z,67.97
2017-02-10T01:25:43.289Z,68.44
2017-02-10T01:26:52.324Z,68.16
2017-02-10T01:28:01.271Z,68.16
2017-02-10T01:29:10.305Z,68.63
2017-02-10T01:30:19.251Z,68.54
2017-02-10T01:31:28.194Z,68.54
2017-02-10T01:32:37.550Z,68.35
2017-02-10T01:33:46.908Z,68.63
2017-02-10T01:34:55.856Z,68.73
2017-02-10T01:36:04.801Z,68.63
2017-02-10T01:37:13.749Z,68.92
2017-02-10T01:38:23.277Z,68.63
2017-02-10T01:39:32.632Z,68.63
2017-02-10T01:40:41.572Z,68.73
2017-02-10T01:41:50.609Z,68.63
2017-02-10T01:42:59.553Z,68.54
2017-02-10T01:44:08.500Z,68.63
2017-02-10T01:45:17.533Z,68.63
2017-02-10T01:46:26.481Z,68.92
2017-02-10T01:47:35.425Z,68.63
2017-02-10T01:48:44.381Z,68.54
2017-02-10T01:49:53.329Z,68.73
2017-02-10T01:51:02.281Z,68.63
2017-02-10T01:52:11.229Z,68.44
2017-02-10T01:53:20.176Z,68.82
2017-02-10T01:54:29.120Z,68.63
2017-02-10T01:55:38.070Z,68.73
2017-02-10T01:56:47.025Z,68.82
2017-02-10T01:57:55.967Z,68.73
2017-02-10T01:59:04.911Z,68.35
2017-02-10T02:00:14.263Z,68.44
2017-02-10T02:01:23.208Z,68.16
2017-02-10T02:02:32.155Z,68.44
2017-02-10T02:03:41.098Z,68.44
2017-02-10T02:04:50.043Z,68.16
2017-02-10T02:05:59.397Z,68.44
2017-02-10T02:07:08.346Z,68.44
2017-02-10T02:08:17.292Z,68.44
2017-02-10T02:09:26.248Z,68.54
2017-02-10T02:10:35.277Z,68.16
2017-02-10T02:11:44.222Z,68.26
2017-02-10T02:12:53.165Z,68.44
2017-02-10T02:14:02.104Z,68.73
2017-02-10T02:15:11.140Z,68.73
2017-02-10T02:16:20.087Z,68.16
2017-02-10T02:17:29.030Z,68.16
2017-02-10T02:18:37.979Z,68.16
2017-02-10T02:19:47.011Z,68.73
2017-02-10T02:20:55.954Z,68.73
2017-02-10T02:22:04.896Z,68.73
2017-02-10T02:23:14.252Z,68.73
2017-02-10T02:24:23.202Z,68.63
2017-02-10T02:25:32.241Z,68.82
2017-02-10T02:26:41.184Z,68.92
2017-02-10T02:27:50.219Z,69.39
2017-02-10T02:28:59.173Z,69.3
2017-02-10T02:30:08.120Z,69.39
2017-02-10T02:31:17.069Z,69.3
2017-02-10T02:32:26.022Z,69.11
2017-02-10T02:33:35.059Z,69.58
2017-02-10T02:34:44.419Z,69.58
2017-02-10T02:35:53.773Z,69.77
2017-02-10T02:37:02.718Z,69.77
2017-02-10T02:38:12.071Z,69.49
2017-02-10T02:39:21.015Z,69.86
2017-02-10T02:40:29.966Z,69.58
2017-02-10T02:41:38.911Z,69.86
2017-02-10T02:42:47.855Z,69.73
2017-02-10T02:43:56.802Z,69.77
2017-02-10T02:45:05.750Z,69.77
2017-02-10T02:46:14.694Z,69.77
2017-02-10T02:47:23.731Z,69.67
2017-02-10T02:48:32.759Z,69.58
2017-02-10T02:49:41.702Z,69.86
2017-02-10T02:50:50.648Z,69.77
2017-02-10T02:51:59.679Z,69.49
2017-02-10T02:53:08.617Z,69.49
2017-02-10T02:54:17.590Z,69.58
2017-02-10T02:55:26.546Z,69.77
2017-02-10T02:56:35.495Z,69.67
2017-02-10T02:57:44.526Z,69.86
2017-02-10T02:58:53.475Z,69.77
2017-02-10T03:00:02.419Z,69.58
2017-02-10T03:01:11.365Z,69.86
2017-02-10T03:02:20.307Z,69.67
2017-02-10T03:03:29.254Z,69.49
2017-02-10T03:04:38.201Z,69.39
2017-02-10T03:05:47.144Z,69.39
2017-02-10T03:06:56.093Z,69.58
2017-02-10T03:08:05.035Z,69.58
2017-02-10T03:09:14.392Z,70.15
2017-02-10T03:10:23.339Z,69.92
2017-02-10T03:11:32.331Z,69.83
2017-02-10T03:12:41.450Z,70.39
2017-02-10T03:13:50.393Z,70.11
2017-02-10T03:14:59.357Z,70.58
2017-02-10T03:16:08.302Z,70.49
2017-02-10T03:17:17.339Z,70.62
2017-02-10T03:18:26.282Z,70.3
2017-02-10T03:19:35.319Z,70.34
2017-02-10T03:20:44.265Z,70.15
2017-02-10T03:21:53.208Z,70.15
2017-02-10T03:23:02.149Z,70.24
2017-02-10T03:24:11.502Z,70.24
2017-02-10T03:25:20.452Z,70.68
2017-02-10T03:26:29.482Z,70.2
2017-02-10T03:27:38.425Z,70.39
2017-02-10T03:28:47.458Z,70.39
2017-02-10T03:29:56.403Z,70.15
2017-02-10T03:31:05.346Z,70.24
2017-02-10T03:32:14.289Z,70.53
2017-02-10T03:33:23.236Z,70.58
2017-02-10T03:34:32.265Z,70.77
2017-02-10T03:35:41.612Z,70.68
2017-02-10T03:36:50.962Z,70.39
2017-02-10T03:37:59.908Z,70.2
2017-02-10T03:39:08.855Z,70.77
2017-02-10T03:40:17.801Z,70.96
2017-02-10T03:41:26.743Z,70.87
2017-02-10T03:42:35.685Z,70.87
2017-02-10T03:43:44.631Z,70.68
2017-02-10T03:44:53.574Z,70.68
2017-02-10T03:46:02.513Z,70.34
2017-02-10T03:47:11.461Z,70.3
2017-02-10T03:48:20.494Z,70.3
2017-02-10T03:49:29.847Z,70.68
2017-02-10T03:50:38.791Z,70.96
2017-02-10T03:51:47.743Z,70.68
2017-02-10T03:52:56.771Z,71.25
2017-02-10T03:54:05.717Z,71.34
2017-02-10T03:55:14.757Z,71.62
2017-02-10T03:56:23.827Z,71.72
2017-02-10T03:57:32.770Z,71.81
2017-02-10T03:58:41.809Z,71.53
2017-02-10T03:59:50.833Z,71.72
2017-02-10T04:00:59.776Z,72.09
2017-02-10T04:02:08.721Z,72.09
2017-02-10T04:03:17.668Z,71.81
2017-02-10T04:04:26.616Z,71.91
2017-02-10T04:05:35.558Z,71.91
2017-02-10T04:06:44.503Z,71.81
2017-02-10T04:07:53.447Z,72
2017-02-10T04:09:02.427Z,71.91
2017-02-10T04:10:11.370Z,72
2017-02-10T04:11:20.489Z,71.91
2017-02-10T04:12:29.437Z,71.72
2017-02-10T04:13:38.422Z,71.72
2017-02-10T04:14:47.363Z,72
2017-02-10T04:15:56.350Z,72
2017-02-10T04:17:05.297Z,71.81
2017-02-10T04:18:14.239Z,71.62
2017-02-10T04:19:23.192Z,72
2017-02-10T04:20:32.141Z,71.43
2017-02-10T04:21:41.086Z,71.62
2017-02-10T04:22:50.030Z,71.53
2017-02-10T04:23:58.976Z,71.53
2017-02-10T04:25:07.926Z,71.43
2017-02-10T04:26:16.867Z,71.43
2017-02-10T04:27:25.814Z,71.62
2017-02-10T04:28:35.170Z,71.06
2017-02-10T04:29:44.115Z,71.06
2017-02-10T04:30:53.148Z,71
2017-02-10T04:32:02.095Z,71.25
2017-02-10T04:33:11.447Z,71.25
2017-02-10T04:34:20.424Z,71.15
2017-02-10T04:35:29.371Z,71.25
2017-02-10T04:36:38.320Z,71.25
2017-02-10T04:37:47.263Z,71.25
2017-02-10T04:38:56.209Z,70.68
2017-02-10T04:40:05.564Z,70.77
2017-02-10T04:41:14.503Z,70.77
2017-02-10T04:42:23.478Z,70.77
2017-02-10T04:43:32.422Z,70.77
2017-02-10T04:44:41.455Z,70.87
2017-02-10T04:45:50.402Z,71.25
2017-02-10T04:46:59.347Z,71.53
2017-02-10T04:48:08.289Z,71.25
2017-02-10T04:49:17.239Z,71.34
2017-02-10T04:50:26.189Z,71.15
2017-02-10T04:51:35.218Z,71.34
2017-02-10T04:52:44.161Z,71.15
2017-02-10T04:53:53.108Z,70.96
2017-02-10T04:55:02.062Z,70.96
2017-02-10T04:56:11.002Z,70.77
2017-02-10T04:57:20.441Z,70.58
2017-02-10T04:58:29.390Z,70.87
2017-02-10T04:59:38.333Z,70.87
2017-02-10T05:00:47.275Z,70.96
2017-02-10T05:01:56.217Z,70.96
2017-02-10T05:03:05.179Z,70.77
2017-02-10T05:04:14.134Z,71.06
2017-02-10T05:05:23.163Z,70.87
2017-02-10T05:06:32.108Z,70.96
2017-02-10T05:07:41.140Z,70.96
2017-02-10T05:08:50.491Z,70.87
2017-02-10T05:10:00.591Z,70.96
2017-02-10T05:11:09.535Z,70.77
2017-02-10T05:12:18.486Z,70.87
2017-02-10T05:13:27.434Z,71.15
2017-02-10T05:14:36.377Z,71.06
2017-02-10T05:15:45.319Z,71.34
2017-02-10T05:16:54.266Z,71.34
2017-02-10T05:18:03.209Z,71.34
2017-02-10T05:19:13.058Z,71.25
2017-02-10T05:20:22.006Z,71.06
2017-02-10T05:21:30.954Z,71.25
2017-02-10T05:22:39.899Z,71.06
2017-02-10T05:23:48.849Z,70.96
2017-02-10T05:24:57.791Z,70.96
2017-02-10T05:26:06.768Z,71.06
2017-02-10T05:27:15.719Z,71.06
2017-02-10T05:28:24.667Z,71.25
2017-02-10T05:29:33.614Z,71.53
2017-02-10T05:30:42.559Z,71.25
2017-02-10T05:31:51.507Z,71.25
2017-02-10T05:33:00.856Z,71.15
2017-02-10T05:34:09.806Z,71.25
2017-02-10T05:35:18.752Z,71.25
2017-02-10T05:36:27.788Z,71.15
2017-02-10T05:37:36.732Z,71.25
2017-02-10T05:38:45.677Z,71.06
2017-02-10T05:39:54.622Z,71.15
2017-02-10T05:41:03.570Z,71.53
2017-02-10T05:42:12.518Z,71.53
2017-02-10T05:43:21.497Z,71.62
2017-02-10T05:44:30.534Z,71.43
2017-02-10T05:45:39.482Z,71.53
2017-02-10T05:46:48.426Z,71.06
2017-02-10T05:47:57.371Z,70.96
2017-02-10T05:49:06.317Z,71.25
2017-02-10T05:50:15.263Z,71.25
2017-02-10T05:51:24.611Z,70.68
2017-02-10T05:52:33.553Z,70.96
2017-02-10T05:53:42.502Z,70.96
2017-02-10T05:54:51.537Z,70.87
2017-02-10T05:56:00.479Z,70.87
2017-02-10T05:57:09.423Z,70.58
2017-02-10T05:58:18.364Z,70.49
2017-02-10T05:59:27.321Z,70.58
2017-02-10T06:00:36.263Z,70.49
2017-02-10T06:01:45.206Z,70.77
2017-02-10T06:02:54.150Z,70.87
2017-02-10T06:04:03.090Z,70.77
2017-02-10T06:05:12.031Z,70.87
2017-02-10T06:06:20.978Z,70.87
2017-02-10T06:07:29.929Z,70.87
2017-02-10T06:08:38.876Z,70.87
2017-02-10T06:09:47.823Z,70.77
2017-02-10T06:10:56.865Z,70.58
2017-02-10T06:12:05.808Z,70.49
2017-02-10T06:13:14.749Z,70.39
2017-02-10T06:14:23.694Z,70.2
2017-02-10T06:15:32.637Z,69.83
2017-02-10T06:16:41.580Z,70.3
2017-02-10T06:17:50.526Z,70.2
2017-02-10T06:18:59.469Z,70.49
2017-02-10T06:20:08.411Z,70.49
2017-02-10T06:21:17.358Z,70.58
2017-02-10T06:22:26.304Z,70.3
2017-02-10T06:23:35.245Z,70.68
2017-02-10T06:24:44.189Z,70.49
2017-02-10T06:25:53.242Z,70.49
2017-02-10T06:27:02.185Z,71.06
2017-02-10T06:28:11.126Z,70.68
2017-02-10T06:29:20.071Z,70.68
2017-02-10T06:30:29.019Z,71.25
2017-02-10T06:31:37.961Z,71.25
2017-02-10T06:32:46.902Z,71.53
2017-02-10T06:33:55.852Z,71.25
2017-02-10T06:35:04.797Z,71.53
2017-02-10T06:36:13.743Z,71.25
2017-02-10T06:37:22.689Z,71.25
2017-02-10T06:38:32.045Z,71.53
2017-02-10T06:39:40.987Z,71.34
2017-02-10T06:40:49.929Z,71.81
2017-02-10T06:41:58.886Z,71.91
2017-02-10T06:43:07.832Z,71.34
2017-02-10T06:44:16.789Z,71.53
2017-02-10T06:45:25.736Z,71.53
2017-02-10T06:46:34.679Z,71.43
2017-02-10T06:47:43.622Z,71.53
2017-02-10T06:48:52.572Z,71.53
2017-02-10T06:50:01.522Z,71.62
2017-02-10T06:51:10.870Z,71.62
2017-02-10T06:52:19.813Z,71.15
2017-02-10T06:53:28.757Z,71.43
2017-02-10T06:54:37.700Z,71.25
2017-02-10T06:55:46.739Z,71.25
2017-02-10T06:56:56.096Z,71.25
2017-02-10T06:58:05.438Z,71.25
2017-02-10T06:59:14.383Z,71.15
2017-02-10T07:00:23.327Z,71.72
2017-02-10T07:01:32.276Z,71.43
2017-02-10T07:02:41.220Z,71.62
2017-02-10T07:03:50.164Z,71.34
2017-02-10T07:04:59.110Z,71.53
2017-02-10T07:06:08.055Z,71.25
2017-02-10T07:07:16.998Z,71.43
2017-02-10T07:08:25.944Z,71.43
2017-02-10T07:09:34.887Z,71.25
2017-02-10T07:10:43.832Z,71.62
2017-02-10T07:11:52.775Z,71.25
2017-02-10T07:13:01.725Z,71.72
2017-02-10T07:14:11.076Z,71.62
2017-02-10T07:15:20.014Z,71.62
2017-02-10T07:16:29.131Z,71.62
2017-02-10T07:17:38.075Z,71.06
2017-02-10T07:18:47.427Z,71.53
2017-02-10T07:19:56.866Z,71.06
2017-02-10T07:21:05.810Z,71.15
2017-02-10T07:22:15.153Z,71.15
2017-02-10T07:23:24.093Z,71.25
2017-02-10T07:24:33.038Z,70.87
2017-02-10T07:25:42.066Z,70.68
2017-02-10T07:26:51.012Z,70.58
2017-02-10T07:28:00.364Z,70.43
2017-02-10T07:29:09.306Z,70.68
2017-02-10T07:30:18.251Z,70.24
2017-02-10T07:31:27.199Z,70.24
2017-02-10T07:32:36.147Z,70.24
2017-02-10T07:33:45.510Z,69.92
2017-02-10T07:34:54.459Z,70.15
2017-02-10T07:36:03.428Z,69.54
2017-02-10T07:37:12.367Z,69.77
2017-02-10T07:38:21.314Z,70.05
2017-02-10T07:39:30.256Z,69.96
2017-02-10T07:40:39.200Z,70.05
2017-02-10T07:41:48.147Z,70.2
2017-02-10T07:42:57.095Z,70.15
2017-02-10T07:44:06.039Z,70.39
2017-02-10T07:45:14.981Z,70.15
2017-02-10T07:46:23.928Z,70.34
2017-02-10T07:47:32.871Z,69.96
2017-02-10T07:48:41.903Z,69.49
2017-02-10T07:49:50.846Z,69.39
2017-02-10T07:50:59.883Z,69.67
2017-02-10T07:52:09.642Z,69.3
2017-02-10T07:53:18.586Z,69.86
2017-02-10T07:54:27.534Z,69.77
2017-02-10T07:55:36.477Z,69.86
2017-02-10T07:56:45.424Z,69.49
2017-02-10T07:57:54.780Z,69.39
2017-02-10T07:59:03.723Z,69.2
2017-02-10T08:00:12.669Z,69.49
2017-02-10T08:01:21.699Z,69.49
2017-02-10T08:02:30.639Z,69.11
2017-02-10T08:03:39.587Z,69.96
2017-02-10T08:04:48.537Z,69.2
2017-02-10T08:05:57.484Z,69.39
2017-02-10T08:07:06.429Z,69.11
2017-02-10T08:08:15.372Z,68.82
2017-02-10T08:09:24.728Z,68.82
2017-02-10T08:10:33.671Z,69.3
2017-02-10T08:11:42.620Z,69.11
2017-02-10T08:12:51.656Z,69.58
2017-02-10T08:14:00.706Z,69.49
2017-02-10T08:15:09.736Z,69.2
2017-02-10T08:16:18.761Z,69.39
2017-02-10T08:17:27.883Z,68.73
2017-02-10T08:18:36.915Z,69.01
2017-02-10T08:19:45.874Z,68.16
2017-02-10T08:20:54.850Z,68.44
2017-02-10T08:22:04.622Z,68.35
2017-02-10T08:23:13.569Z,68.26
2017-02-10T08:24:22.921Z,68.26
2017-02-10T08:25:31.982Z,68.26
2017-02-10T08:26:41.015Z,68.35
2017-02-10T08:27:50.365Z,68.35
2017-02-10T08:28:59.399Z,68.35
2017-02-10T08:30:08.345Z,68.35
2017-02-10T08:31:17.298Z,68.26
2017-02-10T08:32:26.248Z,68.44
2017-02-10T08:33:35.197Z,68.54
2017-02-10T08:34:44.148Z,68.44
2017-02-10T08:35:53.095Z,68.35
2017-02-10T08:37:02.128Z,68.92
2017-02-10T08:38:11.479Z,68.92
2017-02-10T08:39:20.423Z,68.73
2017-02-10T08:40:29.366Z,68.44
2017-02-10T08:41:38.316Z,68.16
2017-02-10T08:42:47.269Z,68.54
2017-02-10T08:43:56.219Z,68.26
2017-02-10T08:45:05.582Z,67.88
2017-02-10T08:46:14.530Z,67.97
2017-02-10T08:47:23.476Z,68.07
2017-02-10T08:48:32.421Z,67.97
2017-02-10T08:49:41.366Z,68.07
2017-02-10T08:50:50.311Z,68.16
2017-02-10T08:51:59.256Z,67.97
2017-02-10T08:53:08.199Z,67.6
2017-02-10T08:54:17.143Z,67.88
2017-02-10T08:55:26.112Z,67.97
2017-02-10T08:56:35.469Z,68.16
2017-02-10T08:57:44.410Z,67.69
2017-02-10T08:58:53.362Z,67.5
2017-02-10T09:00:03.119Z,67.22
2017-02-10T09:01:12.058Z,67.41
2017-02-10T09:02:21.004Z,66.94
2017-02-10T09:03:29.947Z,66.75
2017-02-10T09:04:38.895Z,66.75
2017-02-10T09:05:47.841Z,66.94
2017-02-10T09:06:56.781Z,66.84
2017-02-10T09:08:05.727Z,66.94
2017-02-10T09:09:14.668Z,66.56
2017-02-10T09:10:23.615Z,66.56
2017-02-10T09:11:32.651Z,66.37
2017-02-10T09:12:41.596Z,66.41
2017-02-10T09:13:50.545Z,66.28
2017-02-10T09:14:59.493Z,65.93
2017-02-10T09:16:08.438Z,66.31
2017-02-10T09:17:17.383Z,66.09
2017-02-10T09:18:26.329Z,65.99
2017-02-10T09:19:35.273Z,66.09
2017-02-10T09:20:44.222Z,66.03
2017-02-10T09:21:53.578Z,66.03
2017-02-10T09:23:02.934Z,65.84
2017-02-10T09:24:12.289Z,65.84
2017-02-10T09:25:21.240Z,65.74
2017-02-10T09:26:30.185Z,65.27
2017-02-10T09:27:39.133Z,65.36
2017-02-10T09:28:48.081Z,65.17
2017-02-10T09:29:57.022Z,65.17
2017-02-10T09:31:06.056Z,65.55
2017-02-10T09:32:15.003Z,65.46
2017-02-10T09:33:23.951Z,65.17
2017-02-10T09:34:32.898Z,65.08
2017-02-10T09:35:41.842Z,64.89
2017-02-10T09:36:50.785Z,65.46
2017-02-10T09:37:59.732Z,65.36
2017-02-10T09:39:08.677Z,65.36
2017-02-10T09:40:17.621Z,65.17
2017-02-10T09:41:26.566Z,65.93
2017-02-10T09:42:35.603Z,65.93
2017-02-10T09:43:44.549Z,65.84
2017-02-10T09:44:53.934Z,65.93
2017-02-10T09:46:02.884Z,65.55
2017-02-10T09:47:11.833Z,65.74
2017-02-10T09:48:20.786Z,65.55
2017-02-10T09:49:29.731Z,65.17
2017-02-10T09:50:39.084Z,65.46
2017-02-10T09:51:48.029Z,65.27
2017-02-10T09:52:56.976Z,64.79
2017-02-10T09:54:05.931Z,64.98
2017-02-10T09:55:14.875Z,65.27
2017-02-10T09:56:23.823Z,64.79
2017-02-10T09:57:32.857Z,64.32
2017-02-10T09:58:41.800Z,64.14
2017-02-10T09:59:50.834Z,64.32
2017-02-10T10:00:59.779Z,64.04
2017-02-10T10:02:08.816Z,64.51
2017-02-10T10:03:18.167Z,64.23
2017-02-10T10:04:27.117Z,64.32
2017-02-10T10:05:36.063Z,64.42
2017-02-10T10:06:45.010Z,64.32
2017-02-10T10:07:53.957Z,64.61
2017-02-10T10:09:02.903Z,64.7
2017-02-10T10:10:11.848Z,64.51
2017-02-10T10:11:20.795Z,64.23
2017-02-10T10:12:29.744Z,64.04
2017-02-10T10:13:39.101Z,64.61
2017-02-10T10:14:48.046Z,64.51
2017-02-10T10:15:56.992Z,64.04
2017-02-10T10:17:06.351Z,64.51
2017-02-10T10:18:15.295Z,64.51
2017-02-10T10:19:24.412Z,64.51
2017-02-10T10:20:33.364Z,64.23
2017-02-10T10:21:42.316Z,64.23
2017-02-10T10:22:51.349Z,64.23
2017-02-10T10:24:00.292Z,64.04
2017-02-10T10:25:09.415Z,64.32
2017-02-10T10:26:18.771Z,63.95
2017-02-10T10:27:27.717Z,63.95
2017-02-10T10:28:36.845Z,63.67
2017-02-10T10:29:45.878Z,63.67
2017-02-10T10:30:54.823Z,64.04
2017-02-10T10:32:03.772Z,63.95
2017-02-10T10:33:12.723Z,64.42
2017-02-10T10:34:21.674Z,63.95
2017-02-10T10:35:30.620Z,64.23
2017-02-10T10:36:39.567Z,64.23
2017-02-10T10:37:48.514Z,64.23
2017-02-10T10:38:57.460Z,64.7
2017-02-10T10:40:06.409Z,63.95
2017-02-10T10:41:15.358Z,64.23
2017-02-10T10:42:24.481Z,63.79
2017-02-10T10:43:33.425Z,64.07
2017-02-10T10:44:42.368Z,64.07
2017-02-10T10:45:51.316Z,63.89
2017-02-10T10:47:00.274Z,63.79
2017-02-10T10:48:09.216Z,63.7
2017-02-10T10:49:18.161Z,63.79
2017-02-10T10:50:27.106Z,63.6
2017-02-10T10:51:36.056Z,64.17
2017-02-10T10:52:45.002Z,63.79
2017-02-10T10:53:53.945Z,63.98
2017-02-10T10:55:02.900Z,63.6
2017-02-10T10:56:11.848Z,63.89
2017-02-10T10:57:20.797Z,63.51
2017-02-10T10:58:29.745Z,63.6
2017-02-10T10:59:38.697Z,63.51
2017-02-10T11:00:47.644Z,63.42
2017-02-10T11:01:56.591Z,63.7
2017-02-10T11:03:05.956Z,63.6
2017-02-10T11:04:14.903Z,63.04
2017-02-10T11:05:23.851Z,63.23
2017-02-10T11:06:32.802Z,62.94
2017-02-10T11:07:42.156Z,63.23
2017-02-10T11:08:51.108Z,63.04
2017-02-10T11:10:00.056Z,63.13
2017-02-10T11:11:09.405Z,63.23
2017-02-10T11:12:18.436Z,62.85
2017-02-10T11:13:27.384Z,63.13
2017-02-10T11:14:36.330Z,63.04
2017-02-10T11:15:45.274Z,63.04
2017-02-10T11:16:54.222Z,63.42
2017-02-10T11:18:03.173Z,62.94
2017-02-10T11:19:12.123Z,63.04
2017-02-10T11:20:21.068Z,63.13
2017-02-10T11:21:30.101Z,63.04
2017-02-10T11:22:39.047Z,62.94
2017-02-10T11:23:47.992Z,62.28
2017-02-10T11:24:57.345Z,62.47
2017-02-10T11:26:06.294Z,62.66
2017-02-10T11:27:15.237Z,62.75
2017-02-10T11:28:24.184Z,62.85
2017-02-10T11:29:33.131Z,62.56
2017-02-10T11:30:42.482Z,62.75
2017-02-10T11:31:51.435Z,62.85
2017-02-10T11:33:00.785Z,62.94
2017-02-10T11:34:09.743Z,62.85
2017-02-10T11:35:18.687Z,62.94
2017-02-10T11:36:27.636Z,62.47
2017-02-10T11:37:36.595Z,62.28
2017-02-10T11:38:45.545Z,61.9
2017-02-10T11:39:54.494Z,61.9
2017-02-10T11:41:03.528Z,62.28
2017-02-10T11:42:12.886Z,61.99
2017-02-10T11:43:21.834Z,62.21
2017-02-10T11:44:31.180Z,62.28
2017-02-10T11:45:40.131Z,62.18
2017-02-10T11:46:49.075Z,62.28
2017-02-10T11:47:58.016Z,62.09
2017-02-10T11:49:06.967Z,61.99
2017-02-10T11:50:16.418Z,62.09
2017-02-10T11:51:25.364Z,62.02
2017-02-10T11:52:34.401Z,61.55
2017-02-10T11:53:43.347Z,61.65
2017-02-10T11:54:52.385Z,62.02
2017-02-10T11:56:01.329Z,61.74
2017-02-10T11:57:10.281Z,61.83
2017-02-10T11:58:19.229Z,61.55
2017-02-10T11:59:28.178Z,61.55
2017-02-10T12:00:37.124Z,61.08
2017-02-10T12:01:46.072Z,61.55
2017-02-10T12:02:55.020Z,61.27
2017-02-10T12:04:04.378Z,61.36
2017-02-10T12:05:13.413Z,61.55
2017-02-10T12:06:22.364Z,61.18
2017-02-10T12:07:31.320Z,60.89
2017-02-10T12:08:40.267Z,61.46
2017-02-10T12:09:49.216Z,61.55
2017-02-10T12:10:58.170Z,61.27
2017-02-10T12:12:07.115Z,60.8
2017-02-10T12:13:16.062Z,60.61
2017-02-10T12:14:25.007Z,60.33
2017-02-10T12:15:34.044Z,60.7
2017-02-10T12:16:42.988Z,60.33
2017-02-10T12:17:51.939Z,60.33
2017-02-10T12:19:00.889Z,60.52
2017-02-10T12:20:09.839Z,60.61
2017-02-10T12:21:18.791Z,60.61
2017-02-10T12:22:27.825Z,60.61
2017-02-10T12:23:36.773Z,60.42
2017-02-10T12:24:45.722Z,60.89
2017-02-10T12:25:54.665Z,60.61
2017-02-10T12:27:03.624Z,60.89
2017-02-10T12:28:12.569Z,60.89
2017-02-10T12:29:21.514Z,60.89
2017-02-10T12:30:30.461Z,60.89
2017-02-10T12:31:39.812Z,60.99
2017-02-10T12:32:48.761Z,60.42
2017-02-10T12:33:57.709Z,60.61
2017-02-10T12:35:07.061Z,60.23
2017-02-10T12:36:16.006Z,60.61
2017-02-10T12:37:24.960Z,60.36
2017-02-10T12:38:33.909Z,60.23
2017-02-10T12:39:43.266Z,60.52
2017-02-10T12:40:52.215Z,60.33
2017-02-10T12:42:01.162Z,60.42
2017-02-10T12:43:10.113Z,60.61
2017-02-10T12:44:19.059Z,60.64
2017-02-10T12:45:28.014Z,60.7
2017-02-10T12:46:36.963Z,60.61
2017-02-10T12:47:45.913Z,60.74
2017-02-10T12:48:54.950Z,60.89
2017-02-10T12:50:04.303Z,60.64
2017-02-10T12:51:13.248Z,60.64
2017-02-10T12:52:22.193Z,60.45
2017-02-10T12:53:31.140Z,60.45
2017-02-10T12:54:40.089Z,60.45
2017-02-10T12:55:49.044Z,60.45
2017-02-10T12:56:58.401Z,60.26
2017-02-10T12:58:07.354Z,60.64
2017-02-10T12:59:16.306Z,60.36
2017-02-10T13:00:25.253Z,60.17
2017-02-10T13:01:34.202Z,60.45
2017-02-10T13:02:43.153Z,60.26
2017-02-10T13:03:52.103Z,60.26
2017-02-10T13:05:01.054Z,60.17
2017-02-10T13:06:10.001Z,60.17
2017-02-10T13:07:18.947Z,60.26
2017-02-10T13:08:27.895Z,60.26
2017-02-10T13:09:36.846Z,60.74
2017-02-10T13:10:45.800Z,60.17
2017-02-10T13:11:54.745Z,59.88
2017-02-10T13:13:03.775Z,60.26
2017-02-10T13:14:12.717Z,60.55
2017-02-10T13:15:21.661Z,60.26
2017-02-10T13:16:30.694Z,60.74
2017-02-10T13:17:39.648Z,60.45
2017-02-10T13:18:48.597Z,60.55
2017-02-10T13:19:57.950Z,60.64
2017-02-10T13:21:06.898Z,60.07
2017-02-10T13:22:15.848Z,59.88
2017-02-10T13:23:24.800Z,59.98
2017-02-10T13:24:33.747Z,60.64
2017-02-10T13:25:42.695Z,60.17
2017-02-10T13:26:51.647Z,59.69
2017-02-10T13:28:00.598Z,60.17
2017-02-10T13:29:09.551Z,60.36
2017-02-10T13:30:18.500Z,60.07
2017-02-10T13:31:27.452Z,59.98
2017-02-10T13:32:36.503Z,60.07
2017-02-10T13:33:45.453Z,59.98
2017-02-10T13:34:54.401Z,59.98
2017-02-10T13:36:03.351Z,59.69
2017-02-10T13:37:12.303Z,60.07
2017-02-10T13:38:21.255Z,60.07
2017-02-10T13:39:30.206Z,60.36
2017-02-10T13:40:39.243Z,60.26
2017-02-10T13:41:48.195Z,60.55
2017-02-10T13:42:57.141Z,60.55
2017-02-10T13:44:06.097Z,60.07
2017-02-10T13:45:15.047Z,60.07
2017-02-10T13:46:23.998Z,59.69
2017-02-10T13:47:32.947Z,59.79
2017-02-10T13:48:41.895Z,60.07
2017-02-10T13:49:50.845Z,59.88
2017-02-10T13:50:59.793Z,59.79
2017-02-10T13:52:08.742Z,59.79
2017-02-10T13:53:17.695Z,59.6
2017-02-10T13:54:26.737Z,59.31
2017-02-10T13:55:35.685Z,59.31
2017-02-10T13:56:44.633Z,59.6
2017-02-10T13:57:53.759Z,59.41
2017-02-10T13:59:02.710Z,59.22
2017-02-10T14:00:11.658Z,59.6
2017-02-10T14:01:20.606Z,59.31
2017-02-10T14:02:29.554Z,59.31
2017-02-10T14:03:38.505Z,59.31
2017-02-10T14:04:47.455Z,59.5
2017-02-10T14:05:56.412Z,59.31
2017-02-10T14:07:05.360Z,59.34
2017-02-10T14:08:14.313Z,59.22
2017-02-10T14:09:23.673Z,59.12
2017-02-10T14:10:32.626Z,59.03
2017-02-10T14:11:41.581Z,59.12
2017-02-10T14:12:50.524Z,59.5
2017-02-10T14:13:59.476Z,59.5
2017-02-10T14:15:08.429Z,59.5
2017-02-10T14:16:17.908Z,59.41
2017-02-10T14:17:26.857Z,59.6
2017-02-10T14:18:35.804Z,59.41
2017-02-10T14:19:44.750Z,59.41
2017-02-10T14:20:53.699Z,59.31
2017-02-10T14:22:02.661Z,59.12
2017-02-10T14:23:11.612Z,59.41
2017-02-10T14:24:20.559Z,59.53
2017-02-10T14:25:29.514Z,59.12
2017-02-10T14:26:38.465Z,58.97
2017-02-10T14:27:47.411Z,59.44
2017-02-10T14:28:56.356Z,59.34
2017-02-10T14:30:05.308Z,59.34
2017-02-10T14:31:14.256Z,59.25
2017-02-10T14:32:23.212Z,59.12
2017-02-10T14:33:33.379Z,59.6
2017-02-10T14:34:42.356Z,59.31
2017-02-10T14:35:51.397Z,59.5
2017-02-10T14:37:00.352Z,60.07
2017-02-10T14:38:09.300Z,59.6
2017-02-10T14:39:18.247Z,59.22
2017-02-10T14:40:27.201Z,59.22
2017-02-10T14:41:36.239Z,59.69
2017-02-10T14:42:45.278Z,59.98
2017-02-10T14:43:54.233Z,59.98
2017-02-10T14:45:03.201Z,59.79
2017-02-10T14:46:12.557Z,59.88
2017-02-10T14:47:21.511Z,59.79
2017-02-10T14:48:30.473Z,59.79
2017-02-10T14:49:39.421Z,59.98
2017-02-10T14:50:48.369Z,60.26
2017-02-10T14:51:57.319Z,60.26